createdAt,value
2023-09-28T00:00:35.984Z,3.53
2023-09-28T00:03:10.232Z,3.60
2023-09-28T00:05:37.914Z,3.80
2023-09-28T00:08:09.253Z,3.53
2023-09-28T00:10:36.937Z,4.00
2023-09-28T00:13:07.143Z,3.67
2023-09-28T00:15:34.495Z,3.72
2023-09-28T00:18:05.384Z,3.08
2023-09-28T00:20:37.969Z,3.42
2023-09-28T00:23:05.568Z,3.65
2023-09-28T00:25:35.553Z,3.88
2023-09-28T00:28:02.964Z,3.53
2023-09-28T00:30:32.835Z,3.50
2023-09-28T00:33:00.120Z,3.47
2023-09-28T00:35:30.423Z,3.72
2023-09-28T00:38:03.067Z,3.20
2023-09-28T00:40:33.276Z,3.72
2023-09-28T00:43:05.759Z,3.80
2023-09-28T00:45:33.479Z,3.50
2023-09-28T00:54:12.782Z,4.03
2023-09-28T00:56:41.324Z,3.40
2023-09-28T00:59:11.230Z,3.55
2023-09-28T01:01:41.061Z,3.67
2023-09-28T01:04:11.519Z,3.53
2023-09-28T01:06:38.798Z,3.75
2023-09-28T01:09:12.878Z,3.75
2023-09-28T01:11:43.160Z,3.97
2023-09-28T01:14:11.318Z,3.53
2023-09-28T01:16:41.587Z,3.45
2023-09-28T01:19:09.014Z,3.40
2023-09-28T01:21:39.056Z,3.42
2023-09-28T01:24:09.290Z,4.70
2023-09-28T01:26:39.182Z,3.38
2023-09-28T01:29:06.925Z,3.47
2023-09-28T01:31:36.907Z,3.65
2023-09-28T01:34:04.404Z,3.40
2023-09-28T01:36:34.330Z,3.53
2023-09-28T01:39:08.468Z,3.50
2023-09-28T01:41:41.194Z,3.60
2023-09-28T01:44:08.502Z,3.80
2023-09-28T01:46:38.607Z,3.70
2023-09-28T01:49:06.500Z,3.15
2023-09-28T01:51:36.382Z,3.63
2023-09-28T01:54:03.807Z,3.45
2023-09-28T01:56:33.628Z,3.80
2023-09-28T01:59:04.027Z,3.50
2023-09-28T02:01:34.029Z,3.30
2023-09-28T02:04:01.364Z,3.50
2023-09-28T02:06:31.223Z,3.58
2023-09-28T02:08:58.428Z,3.58
2023-09-28T02:11:28.294Z,3.20
2023-09-28T02:13:56.596Z,3.53
2023-09-28T02:16:29.955Z,3.42
2023-09-28T02:18:57.303Z,3.65
2023-09-28T02:21:27.934Z,3.20
2023-09-28T02:23:56.482Z,3.70
2023-09-28T02:26:26.727Z,3.70
2023-09-28T02:31:23.682Z,3.92
2023-09-28T02:33:53.726Z,3.38
2023-09-28T02:36:23.877Z,3.75
2023-09-28T02:38:56.330Z,3.67
2023-09-28T02:41:26.202Z,3.53
2023-09-28T02:43:53.673Z,3.63
2023-09-28T02:46:26.252Z,3.80
2023-09-28T02:51:26.500Z,3.70
2023-09-28T02:56:23.729Z,3.78
2023-09-28T02:58:53.030Z,3.75
2023-09-28T03:01:24.640Z,4.00
2023-09-28T03:03:52.305Z,3.70
2023-09-28T03:06:22.398Z,3.80
2023-09-28T03:08:52.316Z,3.80
2023-09-28T03:11:22.327Z,3.63
2023-09-28T03:13:50.389Z,4.05
2023-09-28T03:16:20.389Z,3.90
2023-09-28T03:18:47.788Z,3.80
2023-09-28T03:21:17.642Z,3.53
2023-09-28T03:23:45.186Z,4.10
2023-09-28T03:26:17.746Z,3.97
2023-09-28T03:28:45.101Z,3.90
2023-09-28T03:31:15.098Z,3.60
2023-09-28T03:33:42.623Z,3.85
2023-09-28T03:36:14.024Z,3.80
2023-09-28T03:38:43.905Z,3.70
2023-09-28T03:41:13.927Z,4.35
2023-09-28T03:43:46.685Z,4.00
2023-09-28T03:46:16.624Z,4.05
2023-09-28T03:48:46.663Z,3.92
2023-09-28T03:51:18.259Z,4.10
2023-09-28T03:53:48.122Z,3.70
2023-09-28T03:56:18.030Z,3.92
2023-09-28T03:58:50.634Z,3.70
2023-09-28T04:01:20.699Z,3.95
2023-09-28T04:03:51.058Z,4.10
2023-09-28T04:06:21.468Z,4.10
2023-09-28T04:08:51.508Z,3.78
2023-09-28T04:11:21.575Z,4.10
2023-09-28T04:16:23.881Z,4.70
2023-09-28T04:18:53.724Z,4.20
2023-09-28T04:21:23.873Z,4.05
2023-09-28T04:23:53.913Z,4.28
2023-09-28T04:26:23.852Z,4.07
2023-09-28T04:28:56.184Z,4.32
2023-09-28T04:31:26.158Z,4.75
2023-09-28T04:33:56.157Z,4.30
2023-09-28T04:36:27.009Z,4.30
2023-09-28T04:38:56.649Z,5.03
2023-09-28T04:41:26.482Z,4.43
2023-09-28T04:43:57.347Z,5.07
2023-09-28T04:46:30.329Z,4.75
2023-09-28T04:49:00.643Z,5.18
2023-09-28T04:51:30.586Z,5.22
2023-09-28T04:54:04.255Z,4.65
2023-09-28T04:56:34.626Z,5.07
2023-09-28T04:59:04.618Z,5.70
2023-09-28T05:01:37.557Z,5.10
2023-09-28T05:04:12.158Z,5.70
2023-09-28T05:06:43.887Z,5.07
2023-09-28T05:09:14.779Z,5.45
2023-09-28T05:11:44.741Z,5.05
2023-09-28T05:14:14.741Z,5.45
2023-09-28T05:16:47.396Z,5.70
2023-09-28T05:19:17.836Z,5.30
2023-09-28T05:21:48.643Z,5.47
2023-09-28T05:24:18.745Z,4.63
2023-09-28T05:26:48.604Z,5.65
2023-09-28T05:29:18.540Z,5.22
2023-09-28T05:31:51.150Z,4.93
2023-09-28T05:34:21.123Z,5.15
2023-09-28T05:36:51.398Z,4.88
2023-09-28T05:39:23.202Z,5.70
2023-09-28T05:41:53.146Z,5.30
2023-09-28T05:44:23.085Z,5.35
2023-09-28T05:46:56.424Z,5.22
2023-09-28T05:49:26.315Z,5.13
2023-09-28T05:51:56.026Z,5.93
2023-09-28T05:54:27.728Z,5.75
2023-09-28T05:56:57.376Z,5.50
2023-09-28T05:59:27.252Z,5.85
2023-09-28T06:02:04.373Z,6.25
2023-09-28T06:04:34.471Z,5.85
2023-09-28T06:07:04.389Z,5.60
2023-09-28T06:09:34.619Z,5.13
2023-09-28T06:12:04.636Z,5.30
2023-09-28T06:14:37.145Z,5.18
2023-09-28T06:17:09.719Z,5.57
2023-09-28T06:19:51.395Z,5.57
2023-09-28T06:22:23.858Z,5.60
2023-09-28T06:24:53.805Z,5.00
2023-09-28T06:27:23.696Z,5.82
2023-09-28T06:32:27.287Z,5.43
2023-09-28T06:34:57.148Z,7.15
2023-09-28T06:37:27.162Z,6.03
2023-09-28T06:39:56.808Z,5.95
2023-09-28T06:45:05.391Z,6.25
2023-09-28T06:47:53.096Z,5.68
2023-09-28T06:50:24.118Z,6.10
2023-09-28T06:55:25.301Z,6.00
2023-09-28T06:57:56.422Z,8.43
2023-09-28T07:00:26.283Z,7.07
2023-09-28T07:02:59.512Z,7.13
2023-09-28T07:05:34.918Z,7.65
2023-09-28T07:08:06.620Z,7.22
2023-09-28T07:10:37.007Z,7.32
2023-09-28T07:13:08.566Z,6.80
2023-09-28T07:15:41.538Z,7.18
2023-09-28T07:18:12.019Z,6.03
2023-09-28T07:20:45.437Z,6.47
2023-09-28T07:23:15.553Z,5.85
2023-09-28T07:25:46.201Z,6.15
2023-09-28T07:28:16.062Z,6.28
2023-09-28T07:30:45.936Z,5.75
2023-09-28T07:33:17.676Z,5.90
2023-09-28T07:35:50.610Z,5.32
2023-09-28T07:38:20.584Z,5.10
2023-09-28T07:40:50.518Z,4.50
2023-09-28T07:43:20.609Z,4.65
2023-09-28T07:45:51.246Z,4.47
2023-09-28T07:48:20.893Z,5.32
2023-09-28T07:50:53.463Z,4.40
2023-09-28T07:53:23.621Z,5.20
2023-09-28T07:55:53.688Z,4.47
2023-09-28T07:58:27.427Z,4.75
2023-09-28T08:00:57.783Z,4.80
2023-09-28T08:03:27.965Z,4.65
2023-09-28T08:06:02.870Z,5.22
2023-09-28T08:08:32.914Z,4.80
2023-09-28T08:11:02.884Z,4.80
2023-09-28T08:13:32.839Z,4.82
2023-09-28T08:16:02.785Z,5.35
2023-09-28T08:18:32.708Z,4.40
2023-09-28T08:21:10.488Z,4.70
2023-09-28T08:23:42.901Z,4.57
2023-09-28T08:26:13.095Z,4.43
2023-09-28T08:28:42.953Z,4.75
2023-09-28T08:31:14.113Z,4.50
2023-09-28T08:33:44.090Z,5.15
2023-09-28T08:36:16.566Z,4.80
2023-09-28T08:38:46.791Z,4.28
2023-09-28T08:41:20.787Z,5.10
2023-09-28T08:43:56.315Z,4.57
2023-09-28T08:46:44.813Z,3.60
2023-09-28T08:49:17.407Z,4.10
2023-09-28T08:51:52.337Z,4.10
2023-09-28T08:54:23.504Z,3.90
2023-09-28T08:56:56.501Z,3.60
2023-09-28T08:59:30.362Z,3.50
2023-09-28T09:02:02.141Z,3.92
2023-09-28T09:04:32.158Z,3.90
2023-09-28T09:07:05.421Z,3.90
2023-09-28T09:09:38.850Z,3.47
2023-09-28T09:12:13.009Z,4.15
2023-09-28T09:14:42.980Z,3.50
2023-09-28T09:17:13.552Z,3.30
2023-09-28T09:19:45.932Z,3.20
2023-09-28T09:22:41.347Z,3.15
2023-09-28T09:25:19.330Z,2.80
2023-09-28T09:27:50.197Z,2.67
2023-09-28T09:30:22.224Z,3.10
2023-09-28T09:32:52.274Z,2.83
2023-09-28T09:35:26.755Z,2.75
2023-09-28T09:38:01.710Z,3.28
2023-09-28T09:40:32.511Z,2.90
2023-09-28T09:43:10.701Z,3.05
2023-09-28T09:45:41.399Z,2.80
2023-09-28T09:48:11.662Z,3.22
2023-09-28T09:50:43.201Z,2.90
2023-09-28T09:53:16.992Z,3.25
2023-09-28T09:55:51.698Z,2.97
2023-09-28T09:58:30.669Z,2.90
2023-09-28T10:01:03.690Z,2.60
2023-09-28T10:03:34.975Z,3.05
2023-09-28T10:06:05.302Z,3.72
2023-09-28T10:08:38.300Z,3.42
2023-09-28T10:11:08.742Z,2.97
2023-09-28T10:13:39.985Z,3.15
2023-09-28T10:16:14.241Z,3.35
2023-09-28T10:18:48.508Z,3.15
2023-09-28T10:21:18.912Z,3.42
2023-09-28T10:23:51.485Z,3.28
2023-09-28T10:26:24.288Z,2.92
2023-09-28T10:28:59.453Z,3.25
2023-09-28T10:31:41.926Z,3.30
2023-09-28T10:34:24.131Z,3.38
2023-09-28T10:36:59.394Z,3.47
2023-09-28T10:39:33.128Z,3.85
2023-09-28T10:42:09.764Z,3.47
2023-09-28T10:44:49.054Z,3.75
2023-09-28T10:47:19.325Z,3.47
2023-09-28T10:49:49.935Z,3.30
2023-09-28T10:52:19.944Z,3.50
2023-09-28T10:54:52.413Z,3.28
2023-09-28T10:57:22.851Z,3.55
2023-09-28T10:59:53.560Z,2.83
2023-09-28T11:02:23.711Z,3.78
2023-09-28T11:04:54.107Z,3.50
2023-09-28T11:07:25.101Z,3.65
2023-09-28T11:09:57.823Z,3.83
2023-09-28T11:12:27.704Z,3.30
2023-09-28T11:14:57.327Z,3.53
2023-09-28T11:17:28.219Z,3.63
2023-09-28T11:19:56.636Z,3.33
2023-09-28T11:22:26.530Z,3.60
2023-09-28T11:24:55.668Z,3.45
2023-09-28T11:27:28.858Z,3.20
2023-09-28T11:29:56.576Z,3.55
2023-09-28T11:32:26.678Z,3.05
2023-09-28T11:34:57.584Z,3.30
2023-09-28T11:37:29.035Z,3.55
2023-09-28T11:39:59.720Z,3.63
2023-09-28T11:42:32.481Z,3.50
2023-09-28T11:45:04.162Z,3.67
2023-09-28T11:47:34.268Z,3.53
2023-09-28T11:50:08.729Z,3.30
2023-09-28T11:52:39.417Z,2.90
2023-09-28T11:55:11.039Z,3.67
2023-09-28T11:57:45.149Z,3.40
2023-09-28T12:00:19.994Z,3.85
2023-09-28T12:02:50.640Z,3.20
2023-09-28T12:05:21.481Z,3.78
2023-09-28T12:07:51.440Z,3.65
2023-09-28T12:10:21.647Z,3.67
2023-09-28T12:12:54.159Z,3.90
2023-09-28T12:15:24.036Z,3.08
2023-09-28T12:20:24.110Z,3.38
2023-09-28T12:22:54.078Z,3.25
2023-09-28T12:25:24.681Z,3.38
2023-09-28T12:27:56.938Z,3.25
2023-09-28T12:30:27.941Z,4.53
2023-09-28T12:32:57.710Z,2.97
2023-09-28T12:35:27.679Z,3.13
2023-09-28T12:37:57.537Z,3.30
2023-09-28T12:40:27.408Z,3.40
2023-09-28T12:43:02.257Z,3.83
2023-09-28T12:45:35.255Z,3.83
2023-09-28T12:48:05.298Z,3.58
2023-09-28T12:50:35.677Z,3.70
2023-09-28T12:53:05.739Z,3.22
2023-09-28T12:55:37.595Z,3.33
2023-09-28T12:58:10.666Z,3.33
2023-09-28T13:00:40.745Z,3.28
2023-09-28T13:03:11.158Z,3.22
2023-09-28T13:05:42.618Z,3.45
2023-09-28T13:08:16.858Z,3.08
2023-09-28T13:10:46.904Z,2.65
2023-09-28T13:13:19.673Z,2.92
2023-09-28T13:15:50.365Z,3.20
2023-09-28T13:18:20.449Z,3.45
2023-09-28T13:20:50.375Z,3.63
2023-09-28T13:23:20.981Z,2.78
2023-09-28T13:25:50.977Z,2.88
2023-09-28T13:28:23.488Z,3.13
2023-09-28T13:33:25.109Z,2.88
2023-09-28T13:38:25.182Z,2.95
2023-09-28T13:43:27.490Z,2.75
2023-09-28T13:45:57.156Z,2.65
2023-09-28T13:48:29.560Z,3.45
2023-09-28T13:50:59.432Z,3.08
2023-09-28T13:53:30.774Z,3.15
2023-09-28T13:56:00.827Z,3.00
2023-09-28T13:58:35.049Z,3.03
2023-09-28T14:01:12.408Z,3.30
2023-09-28T14:03:42.435Z,3.03
2023-09-28T14:06:12.994Z,2.83
2023-09-28T14:08:44.653Z,2.63
2023-09-28T14:11:22.386Z,2.78
2023-09-28T14:16:24.593Z,3.13
2023-09-28T14:21:24.620Z,3.15
2023-09-28T14:26:24.209Z,3.35
2023-09-28T14:28:56.728Z,3.53
2023-09-28T14:31:26.677Z,3.05
2023-09-28T14:33:57.100Z,3.60
2023-09-28T14:36:27.772Z,3.85
2023-09-28T14:38:57.445Z,3.40
2023-09-28T14:41:27.835Z,3.40
2023-09-28T14:44:12.539Z,3.75
2023-09-28T14:46:42.492Z,2.92
2023-09-28T14:49:15.128Z,3.13
2023-09-28T14:51:45.236Z,2.97
2023-09-28T14:54:16.633Z,3.38
2023-09-28T14:56:46.494Z,3.28
2023-09-28T14:59:19.850Z,3.28
2023-09-28T15:01:50.051Z,3.22
2023-09-28T15:04:20.155Z,3.10
2023-09-28T15:06:50.075Z,3.20
2023-09-28T15:09:20.104Z,3.42
2023-09-28T15:11:50.045Z,3.38
2023-09-28T15:14:22.907Z,2.97
2023-09-28T15:16:53.802Z,3.00
2023-09-28T15:19:23.727Z,3.00
2023-09-28T15:21:53.745Z,3.00
2023-09-28T15:24:23.646Z,3.17
2023-09-28T15:26:53.527Z,3.38
2023-09-28T15:29:26.041Z,3.40
2023-09-28T15:34:24.228Z,3.38
2023-09-28T15:36:54.388Z,3.38
2023-09-28T15:39:24.326Z,3.10
2023-09-28T15:41:54.373Z,3.35
2023-09-28T15:44:26.907Z,4.40
2023-09-28T15:46:56.526Z,3.42
2023-09-28T15:49:27.118Z,3.33
2023-09-28T15:51:56.780Z,3.10
2023-09-28T15:54:26.623Z,3.08
2023-09-28T15:56:56.280Z,3.45
2023-09-28T15:59:28.831Z,3.55
2023-09-28T16:01:56.801Z,3.10
2023-09-28T16:04:31.989Z,3.50
2023-09-28T16:07:02.546Z,3.20
2023-09-28T16:09:32.422Z,3.45
2023-09-28T16:12:02.604Z,3.40
2023-09-28T16:14:32.950Z,3.00
2023-09-28T16:17:03.102Z,3.35
2023-09-28T16:19:35.712Z,3.60
2023-09-28T16:22:06.746Z,3.20
2023-09-28T16:24:36.724Z,3.35
2023-09-28T16:27:06.903Z,3.50
2023-09-28T16:29:37.034Z,3.38
2023-09-28T16:32:06.960Z,3.42
2023-09-28T16:34:39.417Z,4.00
2023-09-28T16:37:11.109Z,3.83
2023-09-28T16:39:41.143Z,3.38
2023-09-28T16:42:10.986Z,3.47
2023-09-28T16:44:40.978Z,3.70
2023-09-28T16:47:11.009Z,3.80
2023-09-28T16:49:43.662Z,4.20
2023-09-28T16:52:13.900Z,3.30
2023-09-28T16:54:43.778Z,3.97
2023-09-28T16:57:13.620Z,3.50
2023-09-28T16:59:43.627Z,3.67
2023-09-28T17:02:13.992Z,4.43
2023-09-28T17:04:46.553Z,3.55
2023-09-28T17:07:16.558Z,3.33
2023-09-28T17:09:46.526Z,3.00
2023-09-28T17:12:24.005Z,4.15
2023-09-28T17:14:59.808Z,3.88
2023-09-28T17:17:30.356Z,3.47
2023-09-28T17:20:02.922Z,3.10
2023-09-28T17:22:32.915Z,3.80
2023-09-28T17:25:02.868Z,3.67
2023-09-28T17:27:33.290Z,3.85
2023-09-28T17:30:03.245Z,3.97
2023-09-28T17:32:33.315Z,4.00
2023-09-28T17:35:06.015Z,3.70
2023-09-28T17:37:36.542Z,3.40
2023-09-28T17:40:10.902Z,3.60
2023-09-28T17:42:40.921Z,3.58
2023-09-28T17:45:12.162Z,3.55
2023-09-28T17:47:44.634Z,3.20
2023-09-28T17:50:19.016Z,3.58
2023-09-28T17:52:49.577Z,3.70
2023-09-28T17:55:19.877Z,3.33
2023-09-28T17:57:49.800Z,3.75
2023-09-28T18:00:20.463Z,3.60
2023-09-28T18:02:50.823Z,3.65
2023-09-28T18:05:23.422Z,3.50
2023-09-28T18:07:53.383Z,3.63
2023-09-28T18:10:23.294Z,3.95
2023-09-28T18:12:53.315Z,3.78
2023-09-28T18:15:24.850Z,3.72
2023-09-28T18:20:27.499Z,4.40
2023-09-28T18:22:57.348Z,4.30
2023-09-28T18:25:27.220Z,4.15
2023-09-28T18:27:57.022Z,4.40
2023-09-28T18:30:27.052Z,4.50
2023-09-28T18:32:57.054Z,4.25
2023-09-28T18:35:29.836Z,4.47
2023-09-28T18:38:02.107Z,4.55
2023-09-28T18:40:32.514Z,4.60
2023-09-28T18:43:02.426Z,4.60
2023-09-28T18:45:32.329Z,4.82
2023-09-28T18:48:02.284Z,4.07
2023-09-28T18:50:34.981Z,4.50
2023-09-28T18:53:05.402Z,4.60
2023-09-28T18:55:35.277Z,4.63
2023-09-28T18:58:05.288Z,4.40
2023-09-28T19:00:35.166Z,4.72
2023-09-28T19:03:05.138Z,4.60
2023-09-28T19:05:39.253Z,4.45
2023-09-28T19:08:10.197Z,4.72
2023-09-28T19:10:40.161Z,4.72
2023-09-28T19:13:10.485Z,4.45
2023-09-28T19:15:41.352Z,4.80
2023-09-28T19:18:11.383Z,4.57
2023-09-28T19:20:44.203Z,4.80
2023-09-28T19:23:14.200Z,4.60
2023-09-28T19:25:44.469Z,5.18
2023-09-28T19:28:17.756Z,4.90
2023-09-28T19:30:47.874Z,5.05
2023-09-28T19:33:17.917Z,5.43
2023-09-28T19:35:50.609Z,4.80
2023-09-28T19:38:20.570Z,4.60
2023-09-28T19:40:50.429Z,4.55
2023-09-28T19:43:20.338Z,4.50
2023-09-28T19:45:50.285Z,5.43
2023-09-28T19:48:20.283Z,5.50
2023-09-28T19:50:52.945Z,5.10
2023-09-28T19:53:23.049Z,6.00
2023-09-28T19:55:52.994Z,6.03
2023-09-28T19:58:25.790Z,5.45
2023-09-28T20:00:57.143Z,5.88
2023-09-28T20:03:27.269Z,5.03
2023-09-28T20:06:02.287Z,5.65
2023-09-28T20:08:32.220Z,5.72
2023-09-28T20:11:02.253Z,5.95
2023-09-28T20:13:32.295Z,5.22
2023-09-28T20:16:02.795Z,4.95
2023-09-28T20:18:33.211Z,5.10
2023-09-28T20:21:06.874Z,5.40
2023-09-28T20:23:36.979Z,5.22
2023-09-28T20:26:07.008Z,5.18
2023-09-28T20:28:36.917Z,5.85
2023-09-28T20:31:06.769Z,5.65
2023-09-28T20:33:36.703Z,5.45
2023-09-28T20:36:10.816Z,6.00
2023-09-28T20:38:40.744Z,5.95
2023-09-28T20:41:14.419Z,4.65
2023-09-28T20:43:44.315Z,5.60
2023-09-28T20:46:18.949Z,5.07
2023-09-28T20:48:49.351Z,5.38
2023-09-28T20:51:21.917Z,5.90
2023-09-28T20:53:52.054Z,4.88
2023-09-28T20:56:22.015Z,5.07
2023-09-28T20:58:52.384Z,5.22
2023-09-28T21:01:22.243Z,4.70
2023-09-28T21:03:52.274Z,5.53
2023-09-28T21:06:24.854Z,4.85
2023-09-28T21:11:24.476Z,5.05
2023-09-28T21:13:54.584Z,5.28
2023-09-28T21:16:26.381Z,5.05
2023-09-28T21:18:57.099Z,5.20
2023-09-28T21:21:29.839Z,4.50
2023-09-28T21:24:00.140Z,4.63
2023-09-28T21:26:30.045Z,4.63
2023-09-28T21:28:59.972Z,5.18
2023-09-28T21:31:29.956Z,4.75
2023-09-28T21:34:00.259Z,4.78
2023-09-28T21:36:32.867Z,5.20
2023-09-28T21:39:03.772Z,5.15
2023-09-28T21:41:33.965Z,4.65
2023-09-28T21:44:03.884Z,5.55
2023-09-28T21:46:34.133Z,6.18
2023-09-28T21:49:04.002Z,5.53
2023-09-28T21:51:36.564Z,5.80
2023-09-28T21:54:06.511Z,6.05
2023-09-28T21:56:36.534Z,6.63
2023-09-28T21:59:06.522Z,6.47
2023-09-28T22:01:40.993Z,6.90
2023-09-28T22:04:13.558Z,6.68
2023-09-28T22:06:46.220Z,6.53
2023-09-28T22:09:16.153Z,6.22
2023-09-28T22:11:46.241Z,6.40
2023-09-28T22:14:16.209Z,6.50
2023-09-28T22:16:46.078Z,6.47
2023-09-28T22:19:16.256Z,6.50
2023-09-28T22:21:48.782Z,6.70
2023-09-28T22:24:18.992Z,6.47
2023-09-28T22:26:49.087Z,6.53
2023-09-28T22:29:19.083Z,7.00
2023-09-28T22:31:49.017Z,7.75
2023-09-28T22:34:18.955Z,7.38
2023-09-28T22:36:52.041Z,7.55
2023-09-28T22:39:22.293Z,7.30
2023-09-28T22:41:52.307Z,7.07
2023-09-28T22:44:22.236Z,7.15
2023-09-28T22:46:52.119Z,8.52
2023-09-28T22:49:22.018Z,7.80
2023-09-28T22:51:54.731Z,7.82
2023-09-28T22:54:24.546Z,6.60
2023-09-28T22:56:54.529Z,7.40
2023-09-28T22:59:24.465Z,7.05
2023-09-28T23:01:54.393Z,6.75
2023-09-28T23:04:24.310Z,7.07
2023-09-28T23:06:56.611Z,6.70
2023-09-28T23:09:26.537Z,7.47
2023-09-28T23:11:57.111Z,6.93
2023-09-28T23:14:27.031Z,7.22
2023-09-28T23:16:57.461Z,7.53
2023-09-28T23:19:27.331Z,7.20
2023-09-28T23:22:02.452Z,7.40
2023-09-28T23:24:32.368Z,7.38
2023-09-28T23:27:02.506Z,7.38
2023-09-28T23:29:32.719Z,6.90
2023-09-28T23:32:03.252Z,6.85
2023-09-28T23:34:33.467Z,7.05
2023-09-28T23:37:05.977Z,7.30
2023-09-28T23:39:35.927Z,6.45
2023-09-28T23:42:05.992Z,7.03
2023-09-28T23:44:33.357Z,7.18
2023-09-28T23:47:03.403Z,6.35
2023-09-28T23:49:33.293Z,6.97
2023-09-28T23:52:06.276Z,6.55
2023-09-28T23:54:36.139Z,6.40
2023-09-28T23:57:06.499Z,7.18
2023-09-28T23:59:36.615Z,6.85
